createdAt,value
2019-03-28T06:07:42.767Z,98.32
2019-03-28T06:08:42.728Z,98.32
2019-03-28T06:09:42.684Z,98.52
2019-03-28T06:10:42.741Z,98.83
2019-03-28T06:11:42.633Z,98.62
2019-03-28T06:12:42.610Z,98.62
2019-03-28T06:13:42.586Z,98.62
2019-03-28T06:14:42.575Z,98.32
2019-03-28T06:15:42.563Z,98.47
2019-03-28T06:25:52.340Z,96.64
2019-03-28T06:26:50.893Z,96.53
2019-03-28T06:27:50.884Z,95.40
2019-03-28T06:28:51.372Z,95.67
2019-03-28T06:29:50.852Z,95.15
2019-03-28T06:30:50.893Z,95.67
2019-03-28T06:31:55.619Z,94.80
2019-03-28T06:32:51.836Z,94.08
2019-03-28T06:39:05.902Z,91.90
2019-03-28T06:40:05.827Z,91.59
2019-03-28T06:41:05.659Z,91.03
2019-03-28T06:42:05.666Z,91.44
2019-03-28T06:43:05.669Z,89.03
2019-03-28T06:44:05.628Z,90.16
2019-03-28T06:45:05.615Z,91.02
2019-03-28T06:46:05.663Z,91.42
2019-03-28T06:47:05.590Z,91.38
2019-03-28T06:48:05.528Z,92.72
2019-03-28T06:49:05.492Z,92.51
2019-03-28T06:50:05.580Z,91.08
2019-03-28T06:51:05.482Z,91.90
2019-03-28T06:52:05.539Z,91.53
2019-03-28T06:53:05.495Z,91.28
2019-03-28T06:54:05.425Z,91.84
2019-03-28T06:55:06.504Z,92.66
2019-03-28T06:56:05.415Z,91.42
2019-03-28T06:57:05.456Z,91.49
2019-03-28T06:58:05.439Z,91.80
2019-03-28T06:59:05.355Z,91.28
2019-03-28T07:00:05.344Z,91.08
2019-03-28T07:01:05.328Z,92.00
2019-03-28T07:02:05.319Z,91.12
2019-03-28T07:03:05.364Z,90.30
2019-03-28T07:04:05.335Z,91.12
2019-03-28T07:05:05.290Z,91.84
2019-03-28T07:06:05.299Z,92.25
2019-03-28T07:07:05.259Z,91.63
2019-03-28T07:08:05.259Z,91.74
2019-03-28T07:09:05.252Z,91.37
2019-03-28T07:10:05.255Z,91.47
2019-03-28T07:11:05.248Z,92.97
2019-03-28T07:12:05.229Z,92.66
2019-03-28T07:13:05.206Z,90.55
2019-03-28T07:14:05.207Z,91.94
2019-03-28T07:15:05.211Z,91.88
2019-03-28T07:16:05.183Z,91.74
2019-03-28T07:17:05.172Z,92.46
2019-03-28T07:18:05.158Z,92.66
2019-03-28T07:19:05.137Z,92.51
2019-03-28T07:20:05.137Z,91.80
2019-03-28T07:21:05.126Z,91.44
2019-03-28T07:22:05.095Z,91.24
2019-03-28T07:23:05.123Z,90.07
2019-03-28T07:24:05.080Z,88.33
2019-03-28T07:25:05.078Z,88.27
2019-03-28T07:26:05.085Z,89.45
2019-03-28T07:27:05.045Z,89.66
2019-03-28T07:28:06.465Z,90.23
2019-03-28T07:29:05.023Z,89.62
2019-03-28T07:30:05.022Z,88.04
2019-03-28T07:31:05.052Z,87.53
2019-03-28T07:32:04.987Z,86.10
2019-03-28T07:33:04.991Z,88.39
2019-03-28T07:34:04.965Z,88.29
2019-03-28T07:35:04.966Z,88.29
2019-03-28T07:36:04.950Z,87.12
2019-03-28T07:37:04.974Z,86.96
2019-03-28T07:38:04.918Z,87.22
2019-03-28T07:39:04.919Z,86.10
2019-03-28T07:40:04.906Z,86.83
2019-03-28T07:41:04.901Z,86.18
2019-03-28T07:42:04.887Z,84.50
2019-03-28T07:43:04.893Z,84.50
2019-03-28T07:44:04.861Z,83.07
2019-03-28T07:45:04.852Z,82.67
2019-03-28T07:46:04.830Z,82.56
2019-03-28T07:47:04.884Z,84.30
2019-03-28T07:48:04.828Z,83.85
2019-03-28T07:49:04.792Z,82.45
2019-03-28T07:50:04.795Z,81.23
2019-03-28T07:51:04.805Z,82.21
2019-03-28T07:52:04.773Z,81.11
2019-03-28T07:53:04.774Z,80.19
2019-03-28T07:54:04.820Z,79.75
2019-03-28T07:55:05.624Z,77.61
2019-03-28T07:56:04.736Z,75.34
2019-03-28T07:57:04.720Z,79.11
2019-03-28T07:58:07.351Z,79.96
2019-03-28T07:59:04.704Z,79.80
2019-03-28T08:00:05.375Z,81.32
2019-03-28T08:01:04.676Z,82.14
2019-03-28T08:02:04.663Z,80.34
2019-03-28T08:03:04.656Z,82.39
2019-03-28T08:04:04.659Z,83.00
2019-03-28T08:05:04.644Z,83.04
2019-03-28T08:06:04.605Z,82.73
2019-03-28T08:07:04.593Z,82.53
2019-03-28T08:08:04.592Z,83.01
2019-03-28T08:09:04.590Z,82.77
2019-03-28T08:10:04.561Z,82.26
2019-03-28T08:11:04.596Z,81.41
2019-03-28T08:12:04.908Z,83.87
2019-03-28T08:13:04.525Z,82.84
2019-03-28T08:14:04.563Z,82.75
2019-03-28T08:15:04.500Z,82.34
2019-03-28T08:16:04.521Z,83.60
2019-03-28T08:17:04.479Z,83.87
2019-03-28T08:18:04.486Z,83.05
2019-03-28T08:19:07.735Z,82.98
2019-03-28T08:20:04.507Z,83.46
2019-03-28T08:21:04.449Z,83.93
2019-03-28T08:22:04.422Z,83.42
2019-03-28T08:23:04.422Z,81.82
2019-03-28T08:24:04.431Z,82.91
2019-03-28T08:25:07.081Z,82.20
2019-03-28T08:26:05.393Z,83.42
2019-03-28T08:27:04.378Z,83.07
2019-03-28T08:28:04.370Z,82.36
2019-03-28T08:29:04.361Z,82.05
2019-03-28T08:30:17.296Z,81.51
2019-03-28T08:31:05.345Z,82.63
2019-03-28T08:32:04.343Z,82.59
2019-03-28T08:33:04.327Z,82.49
2019-03-28T08:34:04.290Z,82.04
2019-03-28T08:35:05.518Z,79.69
2019-03-28T08:36:06.228Z,80.04
2019-03-28T08:37:04.278Z,82.35
2019-03-28T08:38:04.257Z,81.39
2019-03-28T08:39:04.266Z,80.07
2019-03-28T08:40:04.230Z,77.78
2019-03-28T08:41:07.018Z,77.61
2019-03-28T08:42:04.227Z,77.30
2019-03-28T08:43:04.198Z,75.95
2019-03-28T08:44:07.208Z,72.75
2019-03-28T08:45:04.182Z,72.92
2019-03-28T08:46:04.205Z,71.16
2019-03-28T08:47:06.233Z,71.06
2019-03-28T08:48:04.147Z,70.04
2019-03-28T08:49:04.145Z,70.38
2019-03-28T08:50:04.119Z,72.04
2019-03-28T08:51:04.109Z,71.50
2019-03-28T08:52:04.115Z,69.06
2019-03-28T08:53:04.095Z,69.33
2019-03-28T08:54:04.080Z,69.87
2019-03-28T08:55:04.065Z,70.76
2019-03-28T08:56:04.072Z,68.19
2019-03-28T08:57:04.062Z,67.91
2019-03-28T08:58:04.056Z,71.20
2019-03-28T08:59:04.123Z,70.59
2019-03-28T09:00:04.039Z,67.74
2019-03-28T09:01:05.941Z,66.69
2019-03-28T09:02:05.225Z,65.99
2019-03-28T09:03:04.091Z,66.60
2019-03-28T09:04:03.959Z,66.49
2019-03-28T09:05:03.943Z,68.11
2019-03-28T09:06:03.948Z,69.30
2019-03-28T09:07:03.948Z,70.01
2019-03-28T09:08:03.924Z,69.68
2019-03-28T09:09:03.954Z,68.87
2019-03-28T09:10:03.915Z,68.15
2019-03-28T09:11:03.914Z,67.88
2019-03-28T09:12:03.875Z,69.91
2019-03-28T09:13:03.898Z,67.88
2019-03-28T09:14:03.852Z,67.50
2019-03-28T09:15:03.859Z,67.91
2019-03-28T09:16:03.824Z,65.65
2019-03-28T09:17:03.813Z,67.78
2019-03-28T09:18:03.805Z,67.13
2019-03-28T09:19:03.914Z,68.18
2019-03-28T09:20:03.794Z,69.49
2019-03-28T09:21:03.795Z,71.87
2019-03-28T09:22:03.775Z,69.29
2019-03-28T09:23:03.759Z,70.99
2019-03-28T09:24:03.746Z,68.55
2019-03-28T09:25:03.728Z,69.26
2019-03-28T09:26:04.551Z,67.05
2019-03-28T09:27:03.711Z,70.04
2019-03-28T09:28:03.706Z,68.85
2019-03-28T09:29:03.700Z,70.07
2019-03-28T09:30:03.683Z,70.35
2019-03-28T09:31:03.690Z,67.94
2019-03-28T09:32:03.667Z,68.68
2019-03-28T09:33:03.692Z,72.34
2019-03-28T09:34:03.629Z,69.90
2019-03-28T09:35:03.611Z,70.24
2019-03-28T09:36:03.610Z,70.95
2019-03-28T09:37:03.597Z,70.28
2019-03-28T09:38:03.603Z,71.09
2019-03-28T09:39:03.572Z,70.82
2019-03-28T09:40:03.581Z,72.25
2019-03-28T09:41:03.554Z,68.68
2019-03-28T09:42:03.543Z,69.12
2019-03-28T09:43:03.566Z,71.19
2019-03-28T09:44:03.514Z,69.87
2019-03-28T09:45:03.525Z,70.82
2019-03-28T09:46:03.502Z,71.19
2019-03-28T09:47:03.493Z,70.92
2019-03-28T09:48:03.474Z,71.12
2019-03-28T09:49:03.475Z,72.45
2019-03-28T09:50:03.447Z,72.14
2019-03-28T09:51:03.503Z,71.60
2019-03-28T09:52:03.433Z,70.24
2019-03-28T09:53:03.432Z,70.14
2019-03-28T09:54:03.432Z,68.99
2019-03-28T09:55:03.408Z,70.41
2019-03-28T09:56:03.388Z,68.41
2019-03-28T09:57:03.385Z,67.67
2019-03-28T09:58:03.379Z,66.58
2019-03-28T09:59:03.368Z,68.01
2019-03-28T10:00:03.370Z,68.72
2019-03-28T10:01:03.535Z,68.01
2019-03-28T10:02:03.394Z,68.71
2019-03-28T10:03:03.328Z,69.87
2019-03-28T10:04:06.264Z,70.24
2019-03-28T10:05:03.305Z,70.04
2019-03-28T10:06:03.281Z,71.06
2019-03-28T10:07:03.262Z,69.80
2019-03-28T10:08:03.270Z,70.17
2019-03-28T10:09:03.252Z,71.02
2019-03-28T10:10:03.873Z,71.91
2019-03-28T10:11:03.249Z,71.02
2019-03-28T10:12:03.215Z,70.07
2019-03-28T10:13:03.194Z,70.68
2019-03-28T10:14:03.188Z,71.91
2019-03-28T10:15:03.192Z,70.17
2019-03-28T10:16:03.162Z,72.92
2019-03-28T10:17:03.180Z,72.04
2019-03-28T10:18:03.195Z,69.80
2019-03-28T10:19:03.133Z,70.82
2019-03-28T10:20:10.814Z,73.33
2019-03-28T10:21:03.139Z,68.41
2019-03-28T10:22:03.090Z,70.34
2019-03-28T10:23:03.118Z,71.43
2019-03-28T10:24:03.158Z,68.92
2019-03-28T10:25:03.161Z,70.01
2019-03-28T10:26:03.125Z,69.40
2019-03-28T10:27:03.041Z,65.99
2019-03-28T10:28:03.057Z,64.26
2019-03-28T10:54:02.753Z,64.01
2019-03-28T10:55:02.736Z,64.12
2019-03-28T10:56:02.712Z,64.32
2019-03-28T10:57:13.007Z,63.81
2019-03-28T10:58:17.175Z,63.91
2019-03-28T10:59:03.597Z,63.91
2019-03-28T11:00:02.545Z,63.58
2019-03-28T11:01:02.529Z,63.58
2019-03-28T11:02:02.529Z,65.81
2019-03-28T11:03:02.562Z,62.26
2019-03-28T13:16:40.450Z,65.97
2019-03-28T13:17:40.424Z,65.67
2019-03-28T13:18:40.335Z,64.72
2019-03-28T13:19:40.395Z,65.94
2019-03-28T13:20:40.295Z,66.04
2019-03-28T13:21:40.298Z,67.66
2019-03-28T13:22:40.259Z,66.85
2019-03-28T14:36:17.585Z,67.16
2019-03-28T14:37:17.541Z,65.74
2019-03-28T14:38:17.591Z,66.25
2019-03-28T14:39:17.564Z,66.05
2019-03-28T14:40:17.475Z,67.19
2019-03-28T14:41:17.439Z,66.76
2019-03-28T14:42:19.683Z,65.77
2019-03-28T14:43:17.370Z,66.69
2019-03-28T14:47:03.518Z,66.99
2019-03-28T14:48:00.769Z,66.79
2019-03-28T14:49:21.783Z,66.79
2019-03-28T14:50:37.812Z,66.69
2019-03-28T14:51:00.547Z,67.80
2019-03-28T14:52:00.532Z,67.40
2019-03-28T14:53:00.528Z,66.15
2019-03-28T14:54:00.310Z,66.58
2019-03-28T14:55:02.360Z,66.28
2019-03-28T14:56:00.630Z,66.31
2019-03-28T14:57:00.939Z,66.72
2019-03-28T14:58:00.346Z,66.49
2019-03-28T14:59:01.387Z,65.97
2019-03-28T15:00:01.131Z,67.13
2019-03-28T15:03:25.012Z,67.53
